Hub


Voltar

 INFORMAÇÕES METEOROLÓGICAS

METAR FOR RJTO


ADDS - METARS form results

(0319 UTC 20 April 2019)
Data provider http://aviationweather.gov/metar/data/
 
METAR text: RJTO 200300Z 07013KT 9999 FEW025 16/08 Q1016
Conditions at: RJTO (OSHIMA AIRPORT , JP) observed 0300 UTC 20 April 2019
Temperature: 16.0°C (61°F)
Dewpoint: 8.0°C (46°F) [RH = 59%]
Pressure (altimeter): 30.00 inches Hg (1016.0 mb)
Winds: from the ENE (70 degrees) at 15 MPH (13 knots; 6.7 m/s)
Visibility: 6 or more miles (10+ km)
Ceiling: at least 12,000 feet AGL
Clouds: few clouds at 2500 feet AGL
Weather: no significant weather observed at this time


 MAPA DO AEROPORTO


 INFORMAÇÕES DA PISTA

Pista 03 Tamanho da pista 5905 ft Largura da pista 150 ft
Elevação da pista 138 ft Ranhura da pista 0 ft Proa da pista 20
Pista 21 Tamanho da pista 5905 ft Largura da pista 150 ft
Elevação da pista 117 ft Ranhura da pista 0 ft Proa da pista 200

 FREQUÊNCIAS DO AEROPORTO

Tipo RDO Nome RDO Frequência 118.6 MHZ

 AUXÍLIOS DE NAVEGAÇÃO PRÓXIMOS AO AEROPORTO

Tipo VOR-DME Nome Mihara Frequência 109850 KHZ
Tipo NDB Nome Oshima Frequência 214 KHZ
Tipo VORTAC Nome Oshima Frequência 113100 KHZ